This is the latest recevied weather packets stored in our database for station/object WP3OF-3. If no packets are shown the sender has not sent any weather packets the latest 10 day(s).
| Time | Temp. | Humidity | Pressure | Rain* | Wind** | Luminosity | Snow |
|---|---|---|---|---|---|---|---|
| 1778164907 | 29.44° C | 65% | 1020.3 hPa | 0 mm | - | - | - |
| 1778164603 | 30° C | 64% | 1020.4 hPa | 0 mm | - | - | - |
| 1778164301 | 30.56° C | 63% | 1020.5 hPa | 0 mm | - | - | - |
| 1778163996 | 29.44° C | 65% | 1020.4 hPa | 0 mm | - | - | - |
| 1778163693 | 30° C | 63% | 1020.4 hPa | 0 mm | - | - | - |
| 1778163389 | 28.89° C | 68% | 1020.5 hPa | 0 mm | - | - | - |
| 1778163086 | 30° C | 64% | 1020.4 hPa | 0 mm | - | - | - |
| 1778162783 | 29.44° C | 65% | 1020.5 hPa | 0 mm | - | - | - |
| 1778162480 | 29.44° C | 65% | 1020.4 hPa | 0 mm | - | - | - |
| 1778162177 | 28.89° C | 66% | 1020.4 hPa | 0 mm | - | - | - |
| 1778161875 | 28.89° C | 67% | 1020.6 hPa | 0 mm | - | - | - |
| 1778161571 | 28.33° C | 68% | 1020.5 hPa | 0 mm | - | - | - |
| 1778161267 | 28.33° C | 67% | 1020.5 hPa | 0 mm | - | - | - |
| 1778160963 | 28.33° C | 69% | 1020.6 hPa | 0 mm | - | - | - |
| 1778160661 | 28.33° C | 67% | 1020.3 hPa | 0 mm | - | - | - |
| 1778160357 | 28.33° C | 65% | 1020.5 hPa | 0 mm | - | - | - |
| 1778160054 | 28.33° C | 67% | 1020.5 hPa | 0 mm | - | - | - |
| 1778159751 | 27.78° C | 71% | 1020.3 hPa | 0 mm | - | - | - |
| 1778159448 | 27.78° C | 68% | 1020.3 hPa | 0 mm | - | - | - |
| 1778159145 | 27.22° C | 70% | 1020.6 hPa | 0 mm | - | - | - |
| 1778158843 | 26.67° C | 72% | 1020.5 hPa | 0 mm | - | - | - |
| 1778158541 | 26.11° C | 75% | 1020.5 hPa | 0 mm | - | - | - |
| 1778158238 | 25.56° C | 76% | 1020.5 hPa | 0 mm | - | - | - |
| 1778157934 | 25.56° C | 76% | 1020.3 hPa | 0 mm | - | - | - |
| 1778157633 | 23.89° C | 79% | 1020.2 hPa | 0 mm | - | - | - |
* Rain latest hour (hover to see other rain measurements)
** Current wind speed in m/s (hover to see current wind gust speed)